Time;durP1;ratioP1;P1;durP2;ratioP2;P2;SDS_P1;SDS_P2;PMS_P1;PMS_P2;Temp;Humidity;BMP_temperature;BMP_pressure;BME280_temperature;BME280_humidity;BME280_pressure;Samples;Min_cycle;Max_cycle;Signal;HPM_P1;HPM_P2
2023/12/06 00:01:16;;;;;;;16.15;7.20;;;;;;;3.08;100.00;99172.72;5077416;28;20086;-80
2023/12/06 00:04:01;;;;;;;17.40;6.80;;;;;;;3.04;100.00;99187.75;5076815;28;20050;-79
2023/12/06 00:06:44;;;;;;;19.00;6.15;;;;;;;2.97;100.00;99177.16;5082273;28;20051;-79
2023/12/06 00:09:28;;;;;;;16.15;6.07;;;;;;;3.02;100.00;99174.09;5083055;28;20047;-80
2023/12/06 00:12:12;;;;;;;25.08;6.15;;;;;;;2.87;100.00;99175.53;5080969;28;20039;-79
2023/12/06 00:14:56;;;;;;;13.90;6.57;;;;;;;2.93;100.00;99174.97;5080511;28;20050;-80
2023/12/06 00:17:41;;;;;;;22.17;6.95;;;;;;;2.86;100.00;99169.53;5082036;28;20057;-80
2023/12/06 00:20:25;;;;;;;18.50;6.15;;;;;;;2.92;100.00;99179.31;5078555;28;20044;-80
2023/12/06 00:23:09;;;;;;;16.30;5.95;;;;;;;2.94;100.00;99167.03;5077750;28;20051;-80
2023/12/06 00:25:53;;;;;;;13.98;5.65;;;;;;;2.91;100.00;99175.09;5078335;28;20047;-80
2023/12/06 00:28:38;;;;;;;10.65;5.05;;;;;;;3.09;100.00;99169.19;5078441;28;20093;-79
2023/12/06 00:31:22;;;;;;;15.80;5.65;;;;;;;3.14;100.00;99177.34;5081796;28;20089;-80
2023/12/06 00:34:06;;;;;;;15.45;5.82;;;;;;;2.98;100.00;99168.41;5078781;28;20038;-80
2023/12/06 00:36:50;;;;;;;14.85;5.38;;;;;;;3.02;100.00;99173.31;5082370;28;20093;-79
2023/12/06 00:39:33;;;;;;;11.43;5.25;;;;;;;2.98;100.00;99167.56;5081336;28;20549;-79
2023/12/06 00:42:17;;;;;;;15.15;5.35;;;;;;;3.12;100.00;99168.88;5077659;28;20070;-79
2023/12/06 00:45:02;;;;;;;12.77;5.20;;;;;;;3.07;100.00;99176.28;5077006;28;20035;-80
2023/12/06 00:47:46;;;;;;;16.15;4.97;;;;;;;3.00;100.00;99160.47;5074398;28;20074;-79
2023/12/06 00:50:30;;;;;;;14.13;5.00;;;;;;;3.14;100.00;99164.38;5075823;28;20054;-80
2023/12/06 00:53:13;;;;;;;13.88;4.72;;;;;;;3.15;100.00;99173.81;5076336;28;20051;-78
2023/12/06 00:55:57;;;;;;;12.55;4.88;;;;;;;3.19;100.00;99175.16;5078268;28;20092;-78
2023/12/06 00:58:44;;;;;;;11.57;5.07;;;;;;;3.04;100.00;99168.78;5076173;28;20039;-78
2023/12/06 01:01:28;;;;;;;15.75;4.78;;;;;;;2.93;100.00;99173.19;5072642;28;20042;-78
2023/12/06 01:04:12;;;;;;;20.27;5.30;;;;;;;2.98;100.00;99180.53;5077378;28;20394;-78
2023/12/06 01:06:56;;;;;;;11.07;5.18;;;;;;;3.08;100.00;99173.56;5078861;28;20043;-78
2023/12/06 01:09:40;;;;;;;8.90;5.00;;;;;;;2.98;100.00;99176.19;5078563;28;20540;-78
2023/12/06 01:12:24;;;;;;;12.18;5.88;;;;;;;3.15;100.00;99179.00;5078722;28;20070;-79
2023/12/06 01:15:09;;;;;;;11.93;4.85;;;;;;;3.05;100.00;99178.19;5075341;28;20090;-79
2023/12/06 01:17:53;;;;;;;13.63;5.00;;;;;;;3.06;100.00;99172.06;5078277;28;20117;-79
2023/12/06 01:20:39;;;;;;;15.88;4.65;;;;;;;3.00;100.00;99179.44;5078317;28;20050;-81
2023/12/06 01:23:24;;;;;;;10.40;4.80;;;;;;;3.05;100.00;99178.19;5078546;28;20516;-80
2023/12/06 01:26:07;;;;;;;12.35;5.03;;;;;;;3.03;100.00;99180.94;5075060;28;20039;-79
2023/12/06 01:28:52;;;;;;;16.63;5.35;;;;;;;3.05;100.00;99181.63;5077563;28;20508;-78
2023/12/06 01:31:36;;;;;;;12.07;4.53;;;;;;;2.90;100.00;99189.03;5073039;28;20477;-79
2023/12/06 01:34:20;;;;;;;11.88;4.32;;;;;;;2.84;100.00;99187.00;5077859;28;20090;-80
2023/12/06 01:37:04;;;;;;;12.05;4.28;;;;;;;2.96;100.00;99182.47;5081030;28;20042;-79
2023/12/06 01:39:48;;;;;;;12.82;4.72;;;;;;;2.99;100.00;99188.19;5080883;28;20124;-80
2023/12/06 01:42:32;;;;;;;11.27;3.90;;;;;;;3.05;100.00;99183.41;5075546;28;20047;-79
2023/12/06 01:45:16;;;;;;;10.43;4.43;;;;;;;3.10;100.00;99181.19;5078108;28;20043;-78
2023/12/06 01:48:01;;;;;;;18.50;4.30;;;;;;;2.99;100.00;99177.81;5076466;28;20136;-79
2023/12/06 01:50:46;;;;;;;7.25;3.75;;;;;;;2.92;100.00;99181.13;5076391;28;20047;-79
2023/12/06 01:53:31;;;;;;;8.52;3.60;;;;;;;2.89;100.00;99173.63;5076924;28;20085;-79
2023/12/06 01:56:17;;;;;;;6.70;3.58;;;;;;;2.88;100.00;99177.97;5077582;28;20051;-78
2023/12/06 01:59:01;;;;;;;12.30;3.70;;;;;;;2.85;100.00;99183.44;5076606;28;20086;-78
2023/12/06 02:01:46;;;;;;;13.45;3.33;;;;;;;2.89;100.00;99169.25;5076980;28;20113;-78
2023/12/06 02:04:29;;;;;;;9.65;3.60;;;;;;;2.78;100.00;99178.00;5076757;28;20105;-78
2023/12/06 02:07:15;;;;;;;11.27;2.95;;;;;;;2.67;100.00;99175.59;5072740;28;20090;-79
2023/12/06 02:09:59;;;;;;;5.78;3.22;;;;;;;2.60;100.00;99175.34;5079455;28;20113;-79
2023/12/06 02:12:43;;;;;;;7.50;2.97;;;;;;;2.51;100.00;99170.97;5068532;28;20051;-79
2023/12/06 02:15:27;;;;;;;6.78;3.17;;;;;;;2.39;100.00;99163.38;5081276;28;20451;-79
2023/12/06 02:18:11;;;;;;;8.60;3.78;;;;;;;2.35;100.00;99164.56;5077721;28;20093;-79
2023/12/06 02:20:58;;;;;;;10.90;3.80;;;;;;;2.34;100.00;99165.53;5082137;28;20078;-79
2023/12/06 02:23:45;;;;;;;8.10;3.38;;;;;;;2.40;100.00;99165.00;5083288;28;20042;-78
2023/12/06 02:26:29;;;;;;;11.90;3.67;;;;;;;2.39;100.00;99176.31;5079859;28;20047;-79
2023/12/06 02:29:13;;;;;;;10.55;3.83;;;;;;;2.50;100.00;99179.69;5078946;28;20389;-79
2023/12/06 02:31:57;;;;;;;9.75;3.95;;;;;;;2.60;100.00;99175.34;5080628;28;20039;-79
2023/12/06 02:34:42;;;;;;;10.20;3.35;;;;;;;2.60;100.00;99180.53;5077077;28;20410;-80
2023/12/06 02:37:27;;;;;;;8.18;3.58;;;;;;;2.78;100.00;99185.78;5079630;28;20070;-79
2023/12/06 02:40:13;;;;;;;12.98;4.03;;;;;;;2.79;100.00;99184.03;5080749;28;20452;-80
2023/12/06 02:42:58;;;;;;;15.70;3.90;;;;;;;2.72;100.00;99184.56;5079441;28;20047;-79
2023/12/06 02:45:43;;;;;;;9.48;3.70;;;;;;;2.81;100.00;99182.09;5084833;28;20046;-80
2023/12/06 02:48:27;;;;;;;13.30;3.70;;;;;;;2.81;100.00;99187.28;5080576;28;20118;-79
2023/12/06 02:51:11;;;;;;;13.43;3.90;;;;;;;2.86;100.00;99179.91;5078905;28;20044;-79
2023/12/06 02:53:55;;;;;;;13.80;3.80;;;;;;;2.93;100.00;99182.75;5081315;28;20059;-78
2023/12/06 02:56:40;;;;;;;6.82;3.25;;;;;;;2.98;100.00;99181.38;5080616;28;20048;-79
2023/12/06 02:59:24;;;;;;;6.60;3.17;;;;;;;2.85;100.00;99178.28;5085574;28;20036;-78
2023/12/06 03:02:08;;;;;;;5.32;3.03;;;;;;;2.86;100.00;99166.94;5083273;28;20047;-78
2023/12/06 03:04:52;;;;;;;9.95;3.30;;;;;;;2.85;100.00;99171.31;5077458;28;20067;-79
2023/12/06 03:07:36;;;;;;;14.80;3.60;;;;;;;2.84;100.00;99169.66;5079640;28;20042;-79
2023/12/06 03:10:20;;;;;;;16.25;3.72;;;;;;;2.76;100.00;99168.75;5076656;28;20047;-77
2023/12/06 03:13:04;;;;;;;9.38;2.90;;;;;;;2.81;100.00;99169.16;5077269;28;20039;-77
2023/12/06 03:15:48;;;;;;;9.98;3.30;;;;;;;2.78;100.00;99172.03;5074914;28;20091;-80
2023/12/06 03:18:34;;;;;;;6.53;3.20;;;;;;;2.86;100.00;99166.94;5076955;28;20093;-79
2023/12/06 03:21:18;;;;;;;9.73;3.53;;;;;;;2.72;100.00;99163.81;5081161;28;20042;-78
2023/12/06 03:24:02;;;;;;;5.90;2.67;;;;;;;2.72;100.00;99156.06;5081511;28;20046;-79
2023/12/06 03:26:46;;;;;;;10.98;2.80;;;;;;;2.62;100.00;99160.47;5079505;28;20042;-78
2023/12/06 03:29:30;;;;;;;10.32;3.33;;;;;;;2.86;100.00;99153.97;5079595;28;20047;-77
2023/12/06 03:32:14;;;;;;;8.65;3.15;;;;;;;2.62;100.00;99152.69;5072113;28;20043;-78
2023/12/06 03:34:58;;;;;;;9.82;3.00;;;;;;;2.82;100.00;99150.84;5080738;28;20144;-80
2023/12/06 03:37:42;;;;;;;12.25;3.80;;;;;;;2.79;100.00;99158.09;5077591;28;20035;-78
2023/12/06 03:40:25;;;;;;;9.43;3.10;;;;;;;2.65;100.00;99154.16;5080604;28;20551;-78
2023/12/06 03:43:09;;;;;;;7.18;3.15;;;;;;;2.55;100.00;99142.06;5082199;28;20066;-78
2023/12/06 03:45:53;;;;;;;7.03;2.97;;;;;;;2.63;100.00;99145.72;5078349;28;20081;-80
2023/12/06 03:48:37;;;;;;;14.80;3.25;;;;;;;2.62;100.00;99157.03;5071998;28;20044;-78
2023/12/06 03:51:21;;;;;;;7.70;3.13;;;;;;;2.68;100.00;99146.13;5079402;28;20394;-79
2023/12/06 03:54:05;;;;;;;7.70;3.45;;;;;;;2.61;100.00;99156.22;5079877;28;20519;-78
2023/12/06 03:56:50;;;;;;;8.15;4.38;;;;;;;2.60;100.00;99152.00;5083115;28;20047;-79
2023/12/06 03:59:34;;;;;;;11.80;3.50;;;;;;;2.64;100.00;99147.34;5077840;28;20067;-80
2023/12/06 04:02:18;;;;;;;9.95;3.42;;;;;;;2.65;100.00;99152.41;5076775;28;20119;-78
2023/12/06 04:05:02;;;;;;;12.75;3.30;;;;;;;2.65;100.00;99141.19;5076199;28;20067;-79
2023/12/06 04:07:46;;;;;;;10.05;3.80;;;;;;;2.84;100.00;99148.13;5080307;28;20101;-79
2023/12/06 04:10:30;;;;;;;11.18;3.20;;;;;;;2.81;100.00;99146.63;5076803;28;20516;-78
2023/12/06 04:13:14;;;;;;;12.52;4.10;;;;;;;2.72;100.00;99137.91;5077936;28;20043;-78
2023/12/06 04:15:58;;;;;;;8.05;3.75;;;;;;;2.85;100.00;99148.00;5076754;28;20496;-79
2023/12/06 04:18:42;;;;;;;15.07;3.85;;;;;;;2.65;100.00;99149.81;5076730;28;20101;-78
2023/12/06 04:21:25;;;;;;;7.65;3.63;;;;;;;2.64;100.00;99145.59;5078176;28;20067;-78
2023/12/06 04:24:09;;;;;;;7.65;3.00;;;;;;;2.72;100.00;99143.09;5081535;28;20409;-78
2023/12/06 04:26:54;;;;;;;7.80;2.97;;;;;;;2.63;100.00;99154.31;5076841;28;20078;-78
2023/12/06 04:29:38;;;;;;;7.13;3.30;;;;;;;2.55;100.00;99155.00;5081008;28;20051;-78
2023/12/06 04:32:22;;;;;;;9.88;3.15;;;;;;;2.62;100.00;99157.88;5077142;28;20047;-78
2023/12/06 04:35:09;;;;;;;8.27;2.60;;;;;;;2.61;100.00;99151.06;5085597;28;20055;-78
2023/12/06 04:37:54;;;;;;;13.30;3.08;;;;;;;2.57;100.00;99154.88;5077889;28;20043;-78
2023/12/06 04:40:38;;;;;;;12.95;3.58;;;;;;;2.53;100.00;99163.88;5077679;28;20052;-80
2023/12/06 04:43:22;;;;;;;9.50;2.90;;;;;;;2.54;100.00;99170.69;5073758;28;20398;-79
2023/12/06 04:46:06;;;;;;;8.52;2.88;;;;;;;2.60;100.00;99164.97;5077773;28;20039;-79
2023/12/06 04:48:49;;;;;;;12.88;3.40;;;;;;;2.55;100.00;99172.31;5073502;28;20060;-79
2023/12/06 04:51:33;;;;;;;10.48;3.20;;;;;;;2.43;100.00;99169.06;5072600;28;20386;-79
2023/12/06 04:54:17;;;;;;;9.75;3.08;;;;;;;2.28;100.00;99159.16;5074841;28;20451;-79
2023/12/06 04:57:01;;;;;;;10.43;3.20;;;;;;;2.18;100.00;99171.28;5080883;28;20074;-79
2023/12/06 04:59:45;;;;;;;6.20;2.60;;;;;;;2.12;100.00;99170.03;5077076;28;20036;-77
2023/12/06 05:02:29;;;;;;;16.60;3.80;;;;;;;2.14;100.00;99170.72;5080815;28;20444;-77
2023/12/06 05:05:13;;;;;;;8.88;3.10;;;;;;;2.18;100.00;99170.47;5080910;28;20409;-77
2023/12/06 05:07:57;;;;;;;11.00;3.20;;;;;;;2.27;100.00;99174.81;5078331;28;20092;-80
2023/12/06 05:10:41;;;;;;;6.20;2.72;;;;;;;2.37;100.00;99174.81;5074728;28;20102;-80
2023/12/06 05:13:26;;;;;;;12.00;3.95;;;;;;;2.41;100.00;99179.59;5078604;28;20093;-78
2023/12/06 05:16:10;;;;;;;9.25;3.15;;;;;;;2.47;100.00;99170.44;5079600;28;20098;-78
2023/12/06 05:18:54;;;;;;;8.93;3.40;;;;;;;2.44;100.00;99170.69;5076232;28;20085;-80
2023/12/06 05:21:38;;;;;;;7.85;4.03;;;;;;;2.45;100.00;99166.34;5080310;28;20120;-78
2023/12/06 05:24:22;;;;;;;12.55;3.53;;;;;;;2.56;100.00;99163.63;5082300;28;20043;-78
2023/12/06 05:27:06;;;;;;;10.88;3.20;;;;;;;2.45;100.00;99153.41;5081583;28;20456;-78
2023/12/06 05:29:50;;;;;;;8.38;3.00;;;;;;;2.41;100.00;99150.25;5077905;28;20389;-79
2023/12/06 05:32:34;;;;;;;12.63;3.15;;;;;;;2.38;100.00;99159.16;5075430;28;20040;-79
2023/12/06 05:35:18;;;;;;;14.30;3.40;;;;;;;2.29;100.00;99162.53;5077219;28;20043;-80
2023/12/06 05:38:03;;;;;;;12.40;3.28;;;;;;;2.33;100.00;99165.69;5077315;28;20059;-79
2023/12/06 05:40:48;;;;;;;11.38;3.33;;;;;;;2.31;100.00;99170.19;5077566;28;20043;-79
2023/12/06 05:43:32;;;;;;;7.82;2.90;;;;;;;2.49;100.00;99178.91;5073618;28;20082;-79
2023/12/06 05:46:16;;;;;;;7.38;3.60;;;;;;;2.63;100.00;99174.22;5076800;28;20056;-78
2023/12/06 05:49:00;;;;;;;13.82;3.60;;;;;;;2.62;100.00;99167.41;5077209;28;20489;-79
2023/12/06 05:51:44;;;;;;;5.80;2.90;;;;;;;2.64;100.00;99175.84;5085176;28;20047;-79
2023/12/06 05:54:28;;;;;;;11.25;3.50;;;;;;;2.61;100.00;99182.16;5074948;28;20089;-79
2023/12/06 05:57:12;;;;;;;12.80;2.85;;;;;;;2.57;100.00;99185.97;5080307;28;20038;-79
2023/12/06 05:59:57;;;;;;;7.95;3.55;;;;;;;2.55;100.00;99175.75;5080834;28;20043;-79
2023/12/06 06:02:43;;;;;;;8.57;3.58;;;;;;;2.59;100.00;99181.47;5082857;28;20085;-79
2023/12/06 06:05:27;;;;;;;17.52;4.22;;;;;;;2.53;100.00;99182.00;5085601;28;20055;-79
2023/12/06 06:08:11;;;;;;;6.40;3.03;;;;;;;2.58;100.00;99182.44;5082151;28;20043;-80
2023/12/06 06:10:54;;;;;;;8.68;3.13;;;;;;;2.59;100.00;99184.06;5085839;28;20472;-80
2023/12/06 06:13:39;;;;;;;8.30;2.80;;;;;;;2.60;100.00;99183.09;5079089;28;20397;-80
2023/12/06 06:16:22;;;;;;;10.10;2.78;;;;;;;2.53;100.00;99176.81;5078936;28;20386;-79
2023/12/06 06:19:07;;;;;;;15.75;3.75;;;;;;;2.54;100.00;99178.47;5080021;28;20089;-80
2023/12/06 06:21:50;;;;;;;12.60;5.90;;;;;;;2.53;100.00;99180.25;5082716;28;20054;-77
2023/12/06 06:24:34;;;;;;;8.30;5.10;;;;;;;2.52;100.00;99177.78;5079519;28;20112;-79
2023/12/06 06:27:18;;;;;;;12.50;7.07;;;;;;;2.53;100.00;99174.25;5076336;28;20116;-79
2023/12/06 06:30:03;;;;;;;17.40;6.97;;;;;;;2.42;100.00;99185.56;5081088;28;20070;-79
2023/12/06 06:32:47;;;;;;;15.88;5.38;;;;;;;2.41;100.00;99196.88;5078229;28;20097;-79
2023/12/06 06:35:31;;;;;;;12.27;5.95;;;;;;;2.48;100.00;99191.97;5086792;28;20098;-80
2023/12/06 06:38:16;;;;;;;12.27;5.30;;;;;;;2.52;100.00;99188.16;5079902;28;20043;-78
2023/12/06 06:41:00;;;;;;;9.20;4.53;;;;;;;2.56;100.00;99185.16;5077001;28;20405;-79
2023/12/06 06:43:44;;;;;;;11.52;3.95;;;;;;;2.53;100.00;99189.78;5082034;28;20398;-78
2023/12/06 06:46:28;;;;;;;15.40;4.18;;;;;;;2.55;100.00;99188.69;5082562;28;20123;-79
2023/12/06 06:49:12;;;;;;;8.68;3.28;;;;;;;2.55;100.00;99199.06;5078545;28;20051;-78
2023/12/06 06:51:56;;;;;;;6.07;2.78;;;;;;;2.60;100.00;99190.88;5079068;28;20052;-80
2023/12/06 06:54:40;;;;;;;7.43;2.78;;;;;;;2.54;100.00;99191.41;5081806;28;20086;-78
2023/12/06 06:57:24;;;;;;;8.00;3.65;;;;;;;2.45;100.00;99198.25;5081058;28;20039;-78
2023/12/06 07:00:13;;;;;;;7.95;4.40;;;;;;;2.42;100.00;99198.53;5077643;28;20031;-78
2023/12/06 07:02:57;;;;;;;11.95;5.55;;;;;;;2.45;100.00;99189.66;5078240;28;20047;-77
2023/12/06 07:05:41;;;;;;;9.35;4.80;;;;;;;2.46;100.00;99197.31;5075851;28;20074;-78
2023/12/06 07:08:25;;;;;;;8.52;4.43;;;;;;;2.38;100.00;99190.22;5076002;28;20083;-76
2023/12/06 07:11:09;;;;;;;8.18;3.42;;;;;;;2.34;100.00;99191.44;5082329;28;20093;-78
2023/12/06 07:13:53;;;;;;;7.65;3.42;;;;;;;2.28;100.00;99197.19;5080284;28;20082;-80
2023/12/06 07:16:37;;;;;;;5.90;2.83;;;;;;;2.25;100.00;99195.66;5078841;28;20086;-79
2023/12/06 07:19:21;;;;;;;7.60;3.30;;;;;;;2.31;100.00;99202.06;5080031;28;20043;-80
2023/12/06 07:22:06;;;;;;;14.80;7.20;;;;;;;2.24;100.00;99203.59;5084710;28;20561;-78
2023/12/06 07:24:51;;;;;;;15.88;7.78;;;;;;;2.18;100.00;99197.19;5075411;28;20040;-78
2023/12/06 07:27:35;;;;;;;11.38;5.75;;;;;;;2.29;100.00;99204.00;5077657;28;20124;-79
2023/12/06 07:30:19;;;;;;;15.35;7.18;;;;;;;2.30;100.00;99205.63;5081814;28;20594;-80
2023/12/06 07:33:03;;;;;;;20.40;6.22;;;;;;;2.40;100.00;99192.66;5072628;28;20517;-79
2023/12/06 07:35:47;;;;;;;18.45;7.40;;;;;;;2.40;100.00;99196.09;5076089;28;20056;-78
2023/12/06 07:38:31;;;;;;;15.30;6.05;;;;;;;2.46;100.00;99194.72;5074815;28;20070;-78
2023/12/06 07:41:15;;;;;;;17.70;7.00;;;;;;;2.47;100.00;99196.38;5072223;28;20732;-77
2023/12/06 07:44:00;;;;;;;13.82;4.45;;;;;;;2.43;100.00;99189.78;5073261;28;20044;-78
2023/12/06 07:46:44;;;;;;;9.98;4.90;;;;;;;2.48;100.00;99191.97;5078796;28;20093;-78
2023/12/06 07:49:28;;;;;;;13.73;5.65;;;;;;;2.46;100.00;99194.72;5078090;28;20071;-77
2023/12/06 07:52:12;;;;;;;12.38;6.57;;;;;;;2.52;100.00;99193.34;5073904;28;20455;-77
2023/12/06 07:54:56;;;;;;;10.15;4.65;;;;;;;2.55;100.00;99198.22;5071511;28;20443;-77
2023/12/06 07:57:40;;;;;;;11.90;5.25;;;;;;;2.45;100.00;99200.03;5074536;28;20043;-77
2023/12/06 08:00:25;;;;;;;12.00;5.63;;;;;;;2.39;100.00;99204.81;5071171;28;20044;-78
2023/12/06 08:03:09;;;;;;;18.45;6.25;;;;;;;2.38;100.00;99203.19;5075435;28;20135;-78
2023/12/06 08:05:53;;;;;;;7.45;3.30;;;;;;;2.42;100.00;99214.06;5082188;28;20152;-79
2023/12/06 08:08:37;;;;;;;4.00;2.80;;;;;;;2.56;100.00;99215.44;5084957;28;20051;-80
2023/12/06 08:11:21;;;;;;;5.95;3.00;;;;;;;2.62;100.00;99214.88;5075204;28;20074;-78
2023/12/06 08:14:05;;;;;;;8.18;2.60;;;;;;;2.54;100.00;99204.38;5075058;28;20130;-78
2023/12/06 08:16:49;;;;;;;6.10;2.88;;;;;;;2.63;100.00;99200.13;5072177;28;20503;-78
2023/12/06 08:19:33;;;;;;;7.55;3.25;;;;;;;2.67;100.00;99207.50;5073846;28;20339;-77
2023/12/06 08:22:17;;;;;;;4.22;2.50;;;;;;;2.76;100.00;99210.22;5069977;28;20039;-77
2023/12/06 08:25:01;;;;;;;5.35;2.55;;;;;;;2.87;100.00;99202.28;5074382;28;20106;-77
2023/12/06 08:27:46;;;;;;;11.73;3.22;;;;;;;2.92;100.00;99213.03;5075581;28;20065;-77
2023/12/06 08:30:30;;;;;;;9.38;2.97;;;;;;;2.96;100.00;99206.63;5076741;28;20071;-77
2023/12/06 08:33:15;;;;;;;9.48;2.78;;;;;;;2.86;100.00;99205.81;5077142;28;20047;-76
2023/12/06 08:35:59;;;;;;;6.40;3.22;;;;;;;3.04;100.00;99205.09;5078318;28;20425;-82
2023/12/06 08:38:44;;;;;;;7.68;2.60;;;;;;;2.98;100.00;99199.53;5076141;28;20040;-84
2023/12/06 08:41:28;;;;;;;13.38;3.13;;;;;;;3.13;100.00;99193.84;5081347;28;20051;-84
2023/12/06 08:44:12;;;;;;;7.28;3.40;;;;;;;3.03;100.00;99193.09;5076096;28;20046;-82
2023/12/06 08:46:57;;;;;;;11.27;4.50;;;;;;;3.06;100.00;99190.22;5077184;28;20401;-83
2023/12/06 08:49:41;;;;;;;8.82;3.00;;;;;;;3.07;100.00;99197.03;5079193;28;20632;-83
2023/12/06 08:52:25;;;;;;;10.70;2.70;;;;;;;3.11;100.00;99198.38;5078510;28;20048;-82
2023/12/06 08:55:09;;;;;;;3.72;2.55;;;;;;;3.25;100.00;99213.47;5081175;28;20453;-82
2023/12/06 08:57:53;;;;;;;7.35;3.30;;;;;;;3.27;100.00;99202.97;5075846;28;20056;-84
2023/12/06 09:00:36;;;;;;;12.68;6.15;;;;;;;3.25;100.00;99192.72;5080374;28;20062;-83
2023/12/06 09:03:21;;;;;;;19.85;5.68;;;;;;;3.32;100.00;99202.53;5078197;28;20456;-83
2023/12/06 09:06:05;;;;;;;21.33;5.85;;;;;;;3.31;100.00;99206.91;5081378;28;20087;-84
2023/12/06 09:08:50;;;;;;;6.13;2.75;;;;;;;3.40;100.00;99213.81;5082301;28;20468;-82
2023/12/06 09:11:34;;;;;;;5.82;2.45;;;;;;;3.48;100.00;99220.88;5079672;28;20031;-83
2023/12/06 09:14:18;;;;;;;5.78;2.88;;;;;;;3.53;100.00;99218.69;5083507;28;20129;-82
2023/12/06 09:17:02;;;;;;;7.28;2.40;;;;;;;3.62;100.00;99229.16;5078958;28;20085;-83
2023/12/06 09:19:46;;;;;;;9.55;2.42;;;;;;;3.62;100.00;99231.75;5079335;28;20084;-83
2023/12/06 09:22:31;;;;;;;11.10;2.75;;;;;;;3.63;100.00;99225.63;5082491;28;20043;-83
2023/12/06 09:25:15;;;;;;;8.40;2.47;;;;;;;3.65;100.00;99226.28;5085213;28;20040;-82
2023/12/06 09:28:00;;;;;;;3.90;2.10;;;;;;;3.72;100.00;99214.34;5084803;28;20394;-83
2023/12/06 09:30:44;;;;;;;5.47;2.30;;;;;;;3.71;100.00;99220.50;5086758;28;20513;-82
2023/12/06 09:33:28;;;;;;;5.57;4.10;;;;;;;3.68;100.00;99218.19;5084233;28;20044;-83
2023/12/06 09:36:11;;;;;;;8.90;5.13;;;;;;;3.67;100.00;99219.16;5080258;28;20119;-82
2023/12/06 09:38:59;;;;;;;7.72;3.63;;;;;;;3.64;100.00;99216.84;5082460;28;20035;-82
2023/12/06 09:41:44;;;;;;;4.88;3.13;;;;;;;3.59;100.00;99216.47;5086058;28;20054;-83
2023/12/06 09:44:29;;;;;;;6.32;4.13;;;;;;;3.60;100.00;99210.31;5087023;28;20140;-82
2023/12/06 09:47:13;;;;;;;7.25;3.80;;;;;;;3.60;100.00;99208.53;5087864;28;20082;-82
2023/12/06 09:49:57;;;;;;;7.20;3.72;;;;;;;3.59;100.00;99206.91;5081815;28;20109;-82
2023/12/06 09:52:42;;;;;;;13.50;7.47;;;;;;;3.55;100.00;99200.38;5086783;28;20405;-83
2023/12/06 09:55:29;;;;;;;12.18;7.50;;;;;;;3.54;100.00;99211.72;5088464;28;20051;-83
2023/12/06 09:58:15;;;;;;;15.38;8.27;;;;;;;3.50;100.00;99206.00;5085664;28;20122;-83
2023/12/06 10:01:01;;;;;;;13.32;8.07;;;;;;;3.51;100.00;99215.41;5085072;28;20102;-84
2023/12/06 10:03:46;;;;;;;16.55;7.75;;;;;;;3.53;100.00;99213.47;5077897;28;20067;-83
2023/12/06 10:06:30;;;;;;;13.45;7.13;;;;;;;3.53;100.00;99205.69;5084751;28;20170;-83
2023/12/06 10:09:16;;;;;;;10.27;6.55;;;;;;;3.62;100.00;99208.41;5090939;28;20039;-82
2023/12/06 10:12:07;;;;;;;9.73;5.43;;;;;;;3.65;100.00;99206.34;5086849;28;20101;-83
2023/12/06 10:14:59;;;;;;;10.50;6.03;;;;;;;3.68;100.00;99215.59;5084071;28;20051;-82
2023/12/06 10:17:44;;;;;;;10.65;6.38;;;;;;;3.69;100.00;99207.69;5086316;28;20051;-82
2023/12/06 10:20:28;;;;;;;10.48;4.72;;;;;;;3.72;100.00;99198.75;5084962;28;20074;-82
2023/12/06 10:23:12;;;;;;;7.00;4.50;;;;;;;3.77;100.00;99203.53;5085566;28;20043;-82
2023/12/06 10:25:56;;;;;;;7.82;5.05;;;;;;;3.79;100.00;99205.03;5088359;28;20086;-83
2023/12/06 10:28:39;;;;;;;14.27;7.60;;;;;;;3.82;100.00;99204.72;5088039;28;20050;-83
2023/12/06 10:31:25;;;;;;;13.30;7.97;;;;;;;3.85;100.00;99203.63;5083872;28;20055;-82
2023/12/06 10:34:09;;;;;;;12.32;7.38;;;;;;;3.85;100.00;99201.03;5084733;28;20174;-82
2023/12/06 10:36:55;;;;;;;10.43;5.93;;;;;;;3.89;100.00;99206.72;5083588;28;20089;-83
2023/12/06 10:39:40;;;;;;;6.78;4.95;;;;;;;3.93;100.00;99202.88;5077903;28;20094;-82
2023/12/06 10:42:31;;;;;;;8.00;4.35;;;;;;;3.88;100.00;99197.31;5083981;28;20094;-82
2023/12/06 10:45:16;;;;;;;9.68;4.20;;;;;;;3.98;100.00;99185.09;5079499;28;20100;-82
2023/12/06 10:48:04;;;;;;;16.38;6.47;;;;;;;3.98;100.00;99178.09;5083084;28;20038;-82
2023/12/06 10:50:49;;;;;;;13.82;9.25;;;;;;;4.05;100.00;99185.31;5080205;28;20257;-81
2023/12/06 10:53:33;;;;;;;14.38;7.53;;;;;;;4.11;100.00;99185.50;5078827;28;20098;-82
2023/12/06 10:56:19;;;;;;;16.17;8.10;;;;;;;4.09;100.00;99178.84;5084798;28;20404;-83
2023/12/06 10:59:05;;;;;;;14.05;7.97;;;;;;;4.07;100.00;99178.97;5078861;28;20548;-82
2023/12/06 11:01:50;;;;;;;12.52;6.72;;;;;;;4.05;100.00;99173.13;5079169;28;20042;-82
2023/12/06 11:04:42;;;;;;;14.02;7.60;;;;;;;4.11;100.00;99156.94;5085904;28;20051;-81
2023/12/06 11:07:40;;;;;;;17.63;9.43;;;;;;;4.10;100.00;99152.72;5077146;28;20108;-83
2023/12/06 11:10:55;;;;;;;18.27;10.98;;;;;;;4.10;100.00;99147.50;5081035;28;20093;-83
2023/12/06 11:13:56;;;;;;;19.40;11.38;;;;;;;4.16;100.00;99155.69;5082227;28;20444;-84
2023/12/06 11:16:42;;;;;;;20.02;10.73;;;;;;;4.12;100.00;99166.34;5082674;28;20137;-81
2023/12/06 11:19:26;;;;;;;14.98;8.55;;;;;;;4.12;100.00;99165.56;5081871;28;20039;-82
2023/12/06 11:22:10;;;;;;;19.30;7.93;;;;;;;4.10;100.00;99163.09;5082352;28;20516;-82
2023/12/06 11:24:54;;;;;;;12.07;7.00;;;;;;;4.16;100.00;99155.69;5082341;28;20505;-83
2023/12/06 11:27:40;;;;;;;12.77;6.07;;;;;;;4.20;100.00;99157.81;5080594;28;20163;-82
2023/12/06 11:30:24;;;;;;;11.27;6.07;;;;;;;4.21;100.00;99158.66;5078026;28;20047;-82
2023/12/06 11:33:10;;;;;;;12.75;6.03;;;;;;;4.25;100.00;99159.97;5081453;28;20059;-81
2023/12/06 11:35:55;;;;;;;10.32;5.15;;;;;;;4.20;100.00;99152.63;5077232;28;20043;-82
2023/12/06 11:38:40;;;;;;;7.40;4.40;;;;;;;4.28;100.00;99150.09;5082514;28;20972;-81
2023/12/06 11:41:25;;;;;;;9.52;4.88;;;;;;;4.35;100.00;99157.28;5078895;28;20051;-81
2023/12/06 11:44:15;;;;;;;11.10;4.55;;;;;;;4.29;100.00;99153.50;5080901;28;20039;-82
2023/12/06 11:47:05;;;;;;;14.00;5.50;;;;;;;4.32;100.00;99161.00;5075783;28;20115;-81
2023/12/06 11:49:53;;;;;;;12.20;5.20;;;;;;;4.32;100.00;99155.00;5081489;28;20508;-82
2023/12/06 11:52:47;;;;;;;14.13;5.68;;;;;;;4.40;100.00;99155.03;5073784;28;20082;-83
2023/12/06 11:55:31;;;;;;;14.02;6.25;;;;;;;4.34;100.00;99153.88;5076481;28;20105;-82
2023/12/06 11:58:15;;;;;;;19.08;6.65;;;;;;;4.42;100.00;99164.34;5079093;28;20089;-83
2023/12/06 12:01:01;;;;;;;26.85;7.15;;;;;;;4.39;100.00;99156.00;5080695;28;20035;-82
2023/12/06 12:03:49;;;;;;;17.92;8.45;;;;;;;4.49;100.00;99145.53;5078079;28;20048;-82
2023/12/06 12:06:33;;;;;;;27.08;9.48;;;;;;;4.53;100.00;99158.06;5077411;28;20043;-82
2023/12/06 12:09:20;;;;;;;21.98;10.20;;;;;;;4.63;100.00;99157.16;5080981;28;20055;-82
2023/12/06 12:12:04;;;;;;;17.10;11.13;;;;;;;4.70;100.00;99163.38;5076460;28;20074;-82
2023/12/06 12:14:49;;;;;;;20.83;10.18;;;;;;;4.71;100.00;99150.22;5081240;28;20055;-83
2023/12/06 12:17:35;;;;;;;20.17;9.82;;;;;;;4.68;100.00;99162.72;5080994;28;20046;-81
2023/12/06 12:20:20;;;;;;;21.38;9.85;;;;;;;4.72;100.00;99151.88;5076123;28;20560;-82
2023/12/06 12:23:03;;;;;;;18.33;9.00;;;;;;;4.86;100.00;99167.84;5081123;28;20046;-82
2023/12/06 12:25:51;;;;;;;20.60;9.60;;;;;;;4.83;100.00;99165.56;5076719;28;20109;-82
2023/12/06 12:28:35;;;;;;;20.40;9.73;;;;;;;4.81;100.00;99155.31;5082135;28;20117;-82
2023/12/06 12:31:22;;;;;;;21.27;10.32;;;;;;;4.71;100.00;99152.81;5080677;28;20426;-83
2023/12/06 12:34:07;;;;;;;24.33;10.52;;;;;;;4.61;100.00;99148.69;5079160;28;20044;-82
2023/12/06 12:36:52;;;;;;;27.90;10.23;;;;;;;4.84;100.00;99154.19;5080346;28;20035;-82
2023/12/06 12:39:37;;;;;;;25.35;9.95;;;;;;;4.83;100.00;99147.34;5078652;28;20110;-82
2023/12/06 12:42:21;;;;;;;16.30;8.63;;;;;;;4.88;100.00;99139.91;5083259;28;20458;-82
2023/12/06 12:45:14;;;;;;;16.02;7.95;;;;;;;4.86;100.00;99136.63;5082313;28;20508;-82
2023/12/06 12:47:58;;;;;;;16.20;7.75;;;;;;;4.89;100.00;99133.72;5079497;28;20062;-81
2023/12/06 12:50:42;;;;;;;20.15;8.75;;;;;;;4.79;100.00;99131.25;5077935;28;20039;-81